sensor_id;sensor_type;location;lat;lon;timestamp;temperature;humidity
41457;DHT22;27197;51.752;5.220;2023-07-28T00:00:33;22.20;84.60
41457;DHT22;27197;51.752;5.220;2023-07-28T00:03:03;22.20;84.80
41457;DHT22;27197;51.752;5.220;2023-07-28T00:05:32;22.20;84.30
41457;DHT22;27197;51.752;5.220;2023-07-28T00:08:06;22.20;84.00
41457;DHT22;27197;51.752;5.220;2023-07-28T00:10:41;22.10;84.70
41457;DHT22;27197;51.752;5.220;2023-07-28T00:13:14;22.10;84.70
41457;DHT22;27197;51.752;5.220;2023-07-28T00:15:43;22.10;84.90
41457;DHT22;27197;51.752;5.220;2023-07-28T00:18:18;22.10;85.10
41457;DHT22;27197;51.752;5.220;2023-07-28T00:20:49;22.20;84.60
41457;DHT22;27197;51.752;5.220;2023-07-28T00:23:22;22.10;84.90
41457;DHT22;27197;51.752;5.220;2023-07-28T00:25:51;22.20;84.70
41457;DHT22;27197;51.752;5.220;2023-07-28T00:28:25;22.20;84.90
41457;DHT22;27197;51.752;5.220;2023-07-28T00:30:55;22.10;84.20
41457;DHT22;27197;51.752;5.220;2023-07-28T00:33:29;22.10;84.70
41457;DHT22;27197;51.752;5.220;2023-07-28T00:35:58;22.10;84.90
41457;DHT22;27197;51.752;5.220;2023-07-28T00:38:31;22.10;85.00
41457;DHT22;27197;51.752;5.220;2023-07-28T00:41:03;22.20;84.80
41457;DHT22;27197;51.752;5.220;2023-07-28T00:43:35;22.20;84.40
41457;DHT22;27197;51.752;5.220;2023-07-28T00:46:07;22.30;84.30
41457;DHT22;27197;51.752;5.220;2023-07-28T00:48:39;22.20;84.30
41457;DHT22;27197;51.752;5.220;2023-07-28T00:51:10;22.30;84.00
41457;DHT22;27197;51.752;5.220;2023-07-28T00:53:41;22.40;83.70
41457;DHT22;27197;51.752;5.220;2023-07-28T00:56:12;22.40;83.70
41457;DHT22;27197;51.752;5.220;2023-07-28T00:58:43;22.40;83.60
41457;DHT22;27197;51.752;5.220;2023-07-28T01:01:17;22.50;82.80
41457;DHT22;27197;51.752;5.220;2023-07-28T01:03:47;22.50;82.90
41457;DHT22;27197;51.752;5.220;2023-07-28T01:06:30;22.50;83.20
41457;DHT22;27197;51.752;5.220;2023-07-28T01:09:02;22.50;83.00
41457;DHT22;27197;51.752;5.220;2023-07-28T01:11:36;22.50;82.80
41457;DHT22;27197;51.752;5.220;2023-07-28T01:14:08;22.50;83.10
41457;DHT22;27197;51.752;5.220;2023-07-28T01:16:42;22.40;83.20
41457;DHT22;27197;51.752;5.220;2023-07-28T01:19:19;22.50;83.30
41457;DHT22;27197;51.752;5.220;2023-07-28T01:22:01;22.50;82.70
41457;DHT22;27197;51.752;5.220;2023-07-28T01:24:35;22.40;82.60
41457;DHT22;27197;51.752;5.220;2023-07-28T01:27:04;22.40;83.30
41457;DHT22;27197;51.752;5.220;2023-07-28T01:29:35;22.30;83.20
41457;DHT22;27197;51.752;5.220;2023-07-28T01:32:10;22.20;83.90
41457;DHT22;27197;51.752;5.220;2023-07-28T01:34:42;22.20;84.00
41457;DHT22;27197;51.752;5.220;2023-07-28T01:37:16;22.30;83.90
41457;DHT22;27197;51.752;5.220;2023-07-28T01:39:46;22.30;83.90
41457;DHT22;27197;51.752;5.220;2023-07-28T01:42:21;22.30;83.90
41457;DHT22;27197;51.752;5.220;2023-07-28T01:44:58;22.20;83.90
41457;DHT22;27197;51.752;5.220;2023-07-28T01:47:27;22.20;84.10
41457;DHT22;27197;51.752;5.220;2023-07-28T01:49:57;22.20;84.10
41457;DHT22;27197;51.752;5.220;2023-07-28T01:52:27;22.30;84.10
41457;DHT22;27197;51.752;5.220;2023-07-28T01:55:00;22.30;84.00
41457;DHT22;27197;51.752;5.220;2023-07-28T01:57:35;22.20;83.60
41457;DHT22;27197;51.752;5.220;2023-07-28T02:00:05;22.20;84.50
41457;DHT22;27197;51.752;5.220;2023-07-28T02:02:38;22.20;84.30
41457;DHT22;27197;51.752;5.220;2023-07-28T02:05:08;22.30;84.10
41457;DHT22;27197;51.752;5.220;2023-07-28T02:07:38;22.20;84.20
41457;DHT22;27197;51.752;5.220;2023-07-28T02:10:10;22.10;84.20
41457;DHT22;27197;51.752;5.220;2023-07-28T02:25:55;22.40;83.10
41457;DHT22;27197;51.752;5.220;2023-07-28T02:28:27;22.40;83.30
41457;DHT22;27197;51.752;5.220;2023-07-28T02:30:59;22.40;83.20
41457;DHT22;27197;51.752;5.220;2023-07-28T02:33:31;22.30;83.20
41457;DHT22;27197;51.752;5.220;2023-07-28T02:36:00;22.40;83.60
41457;DHT22;27197;51.752;5.220;2023-07-28T02:38:34;22.40;83.30
41457;DHT22;27197;51.752;5.220;2023-07-28T02:41:01;22.40;83.50
41457;DHT22;27197;51.752;5.220;2023-07-28T02:43:37;22.40;83.40
41457;DHT22;27197;51.752;5.220;2023-07-28T02:46:06;22.30;83.60
41457;DHT22;27197;51.752;5.220;2023-07-28T02:48:41;22.30;83.60
41457;DHT22;27197;51.752;5.220;2023-07-28T02:51:09;22.30;83.60
41457;DHT22;27197;51.752;5.220;2023-07-28T02:53:43;22.10;84.40
41457;DHT22;27197;51.752;5.220;2023-07-28T02:56:17;22.10;84.30
41457;DHT22;27197;51.752;5.220;2023-07-28T02:58:50;22.10;84.40
41457;DHT22;27197;51.752;5.220;2023-07-28T03:01:19;22.20;84.20
41457;DHT22;27197;51.752;5.220;2023-07-28T03:03:53;22.10;84.40
41457;DHT22;27197;51.752;5.220;2023-07-28T03:06:22;22.10;84.50
41457;DHT22;27197;51.752;5.220;2023-07-28T03:08:54;22.00;84.50
41457;DHT22;27197;51.752;5.220;2023-07-28T03:11:24;22.00;84.90
41457;DHT22;27197;51.752;5.220;2023-07-28T03:13:58;22.00;85.00
41457;DHT22;27197;51.752;5.220;2023-07-28T03:16:26;22.10;84.90
41457;DHT22;27197;51.752;5.220;2023-07-28T03:18:57;22.10;84.90
41457;DHT22;27197;51.752;5.220;2023-07-28T03:21:29;22.10;85.20
41457;DHT22;27197;51.752;5.220;2023-07-28T03:24:00;22.20;84.30
41457;DHT22;27197;51.752;5.220;2023-07-28T03:29:11;22.30;83.80
41457;DHT22;27197;51.752;5.220;2023-07-28T03:31:39;22.30;83.70
41457;DHT22;27197;51.752;5.220;2023-07-28T03:34:09;22.30;83.50
41457;DHT22;27197;51.752;5.220;2023-07-28T03:36:39;22.30;83.70
41457;DHT22;27197;51.752;5.220;2023-07-28T03:39:08;22.30;83.40
41457;DHT22;27197;51.752;5.220;2023-07-28T03:41:39;22.30;83.90
41457;DHT22;27197;51.752;5.220;2023-07-28T03:44:09;22.20;83.60
41457;DHT22;27197;51.752;5.220;2023-07-28T03:46:40;22.10;84.30
41457;DHT22;27197;51.752;5.220;2023-07-28T03:49:11;22.20;84.00
41457;DHT22;27197;51.752;5.220;2023-07-28T03:51:42;22.20;84.40
41457;DHT22;27197;51.752;5.220;2023-07-28T03:54:12;22.20;83.80
41457;DHT22;27197;51.752;5.220;2023-07-28T03:56:43;22.30;83.60
41457;DHT22;27197;51.752;5.220;2023-07-28T03:59:13;22.30;83.20
41457;DHT22;27197;51.752;5.220;2023-07-28T04:01:43;22.30;83.40
41457;DHT22;27197;51.752;5.220;2023-07-28T04:04:16;22.30;83.60
41457;DHT22;27197;51.752;5.220;2023-07-28T04:06:49;22.30;83.70
41457;DHT22;27197;51.752;5.220;2023-07-28T04:09:20;22.30;83.40
41457;DHT22;27197;51.752;5.220;2023-07-28T04:11:49;22.30;83.40
41457;DHT22;27197;51.752;5.220;2023-07-28T04:14:23;22.40;83.00
41457;DHT22;27197;51.752;5.220;2023-07-28T04:16:55;22.20;83.70
41457;DHT22;27197;51.752;5.220;2023-07-28T04:19:27;22.20;84.10
41457;DHT22;27197;51.752;5.220;2023-07-28T04:22:00;22.20;83.90
41457;DHT22;27197;51.752;5.220;2023-07-28T04:24:31;22.10;84.30
41457;DHT22;27197;51.752;5.220;2023-07-28T04:27:01;22.10;84.30
41457;DHT22;27197;51.752;5.220;2023-07-28T04:29:35;22.10;84.20
41457;DHT22;27197;51.752;5.220;2023-07-28T04:32:05;22.10;84.70
41457;DHT22;27197;51.752;5.220;2023-07-28T04:34:37;22.20;84.00
41457;DHT22;27197;51.752;5.220;2023-07-28T04:37:09;22.10;84.40
41457;DHT22;27197;51.752;5.220;2023-07-28T04:39:44;22.20;84.00
41457;DHT22;27197;51.752;5.220;2023-07-28T04:42:13;22.20;83.70
41457;DHT22;27197;51.752;5.220;2023-07-28T04:44:44;22.10;84.10
41457;DHT22;27197;51.752;5.220;2023-07-28T04:47:14;22.10;84.30
41457;DHT22;27197;51.752;5.220;2023-07-28T04:49:45;22.20;84.00
41457;DHT22;27197;51.752;5.220;2023-07-28T04:52:16;22.30;83.40
41457;DHT22;27197;51.752;5.220;2023-07-28T04:54:46;22.30;83.50
41457;DHT22;27197;51.752;5.220;2023-07-28T04:57:18;22.30;83.50
41457;DHT22;27197;51.752;5.220;2023-07-28T04:59:53;22.10;84.10
41457;DHT22;27197;51.752;5.220;2023-07-28T05:02:27;22.20;84.70
41457;DHT22;27197;51.752;5.220;2023-07-28T05:04:59;22.20;83.80
41457;DHT22;27197;51.752;5.220;2023-07-28T05:07:33;22.30;83.30
41457;DHT22;27197;51.752;5.220;2023-07-28T05:10:02;22.30;84.00
41457;DHT22;27197;51.752;5.220;2023-07-28T05:12:38;22.20;83.90
41457;DHT22;27197;51.752;5.220;2023-07-28T05:15:07;22.20;83.90
41457;DHT22;27197;51.752;5.220;2023-07-28T05:17:41;22.30;83.70
41457;DHT22;27197;51.752;5.220;2023-07-28T05:20:10;22.30;83.60
41457;DHT22;27197;51.752;5.220;2023-07-28T05:22:41;22.30;83.70
41457;DHT22;27197;51.752;5.220;2023-07-28T05:25:11;22.30;83.60
41457;DHT22;27197;51.752;5.220;2023-07-28T05:27:44;22.30;83.70
41457;DHT22;27197;51.752;5.220;2023-07-28T05:30:15;22.20;84.20
41457;DHT22;27197;51.752;5.220;2023-07-28T05:32:47;22.10;84.00
41457;DHT22;27197;51.752;5.220;2023-07-28T05:35:17;22.10;84.30
41457;DHT22;27197;51.752;5.220;2023-07-28T05:37:51;22.20;84.00
41457;DHT22;27197;51.752;5.220;2023-07-28T05:40:21;22.10;84.20
41457;DHT22;27197;51.752;5.220;2023-07-28T05:42:56;22.10;84.20
41457;DHT22;27197;51.752;5.220;2023-07-28T05:45:25;22.00;85.00
41457;DHT22;27197;51.752;5.220;2023-07-28T05:48:00;22.00;85.00
41457;DHT22;27197;51.752;5.220;2023-07-28T05:50:31;22.00;85.10
41457;DHT22;27197;51.752;5.220;2023-07-28T05:53:02;22.00;86.70
41457;DHT22;27197;51.752;5.220;2023-07-28T05:55:32;22.00;87.20
41457;DHT22;27197;51.752;5.220;2023-07-28T05:58:03;22.10;89.90
41457;DHT22;27197;51.752;5.220;2023-07-28T06:00:34;22.10;89.10
41457;DHT22;27197;51.752;5.220;2023-07-28T06:03:04;22.20;87.10
41457;DHT22;27197;51.752;5.220;2023-07-28T06:05:34;22.10;88.00
41457;DHT22;27197;51.752;5.220;2023-07-28T06:08:04;22.10;86.70
41457;DHT22;27197;51.752;5.220;2023-07-28T06:10:40;22.00;89.40
41457;DHT22;27197;51.752;5.220;2023-07-28T06:13:09;21.90;88.80
41457;DHT22;27197;51.752;5.220;2023-07-28T06:15:44;21.90;89.60
41457;DHT22;27197;51.752;5.220;2023-07-28T06:18:13;22.00;89.90
41457;DHT22;27197;51.752;5.220;2023-07-28T06:20:46;22.10;90.00
41457;DHT22;27197;51.752;5.220;2023-07-28T06:23:15;22.20;88.40
41457;DHT22;27197;51.752;5.220;2023-07-28T06:25:49;22.20;88.40
41457;DHT22;27197;51.752;5.220;2023-07-28T06:28:19;22.20;88.40
41457;DHT22;27197;51.752;5.220;2023-07-28T06:30:54;22.20;88.10
41457;DHT22;27197;51.752;5.220;2023-07-28T06:33:23;22.30;88.40
41457;DHT22;27197;51.752;5.220;2023-07-28T06:35:53;22.20;86.70
41457;DHT22;27197;51.752;5.220;2023-07-28T06:38:25;22.20;88.40
41457;DHT22;27197;51.752;5.220;2023-07-28T06:40:54;22.20;87.90
41457;DHT22;27197;51.752;5.220;2023-07-28T06:43:28;22.30;87.00
41457;DHT22;27197;51.752;5.220;2023-07-28T06:45:57;22.30;87.50
41457;DHT22;27197;51.752;5.220;2023-07-28T06:48:31;22.20;88.40
41457;DHT22;27197;51.752;5.220;2023-07-28T06:51:04;22.30;87.20
41457;DHT22;27197;51.752;5.220;2023-07-28T06:53:33;22.40;86.70
41457;DHT22;27197;51.752;5.220;2023-07-28T06:56:04;22.30;87.30
41457;DHT22;27197;51.752;5.220;2023-07-28T06:58:35;22.40;86.70
41457;DHT22;27197;51.752;5.220;2023-07-28T07:01:05;22.40;86.90
41457;DHT22;27197;51.752;5.220;2023-07-28T07:03:37;22.40;87.00
41457;DHT22;27197;51.752;5.220;2023-07-28T07:06:07;22.30;86.40
41457;DHT22;27197;51.752;5.220;2023-07-28T07:08:37;22.30;86.60
41457;DHT22;27197;51.752;5.220;2023-07-28T07:11:09;22.50;87.10
41457;DHT22;27197;51.752;5.220;2023-07-28T07:13:40;22.60;86.80
41457;DHT22;27197;51.752;5.220;2023-07-28T07:16:17;22.60;86.00
41457;DHT22;27197;51.752;5.220;2023-07-28T07:18:47;22.60;86.40
41457;DHT22;27197;51.752;5.220;2023-07-28T07:21:17;22.60;86.30
41457;DHT22;27197;51.752;5.220;2023-07-28T07:23:46;22.70;85.00
41457;DHT22;27197;51.752;5.220;2023-07-28T07:26:17;22.60;85.70
41457;DHT22;27197;51.752;5.220;2023-07-28T07:28:46;22.50;86.50
41457;DHT22;27197;51.752;5.220;2023-07-28T07:31:17;22.60;87.00
41457;DHT22;27197;51.752;5.220;2023-07-28T07:33:46;22.80;86.20
41457;DHT22;27197;51.752;5.220;2023-07-28T07:36:19;22.80;86.00
41457;DHT22;27197;51.752;5.220;2023-07-28T07:38:48;22.80;85.70
41457;DHT22;27197;51.752;5.220;2023-07-28T07:41:16;22.80;85.50
41457;DHT22;27197;51.752;5.220;2023-07-28T07:43:47;22.90;86.10
41457;DHT22;27197;51.752;5.220;2023-07-28T07:46:21;22.80;84.30
41457;DHT22;27197;51.752;5.220;2023-07-28T07:48:51;22.80;85.60
41457;DHT22;27197;51.752;5.220;2023-07-28T07:51:23;22.80;85.60
41457;DHT22;27197;51.752;5.220;2023-07-28T07:53:54;22.90;85.20
41457;DHT22;27197;51.752;5.220;2023-07-28T07:56:25;23.00;84.30
41457;DHT22;27197;51.752;5.220;2023-07-28T07:58:54;22.90;84.00
41457;DHT22;27197;51.752;5.220;2023-07-28T08:01:25;22.90;84.70
41457;DHT22;27197;51.752;5.220;2023-07-28T08:03:56;22.80;84.80
41457;DHT22;27197;51.752;5.220;2023-07-28T08:06:30;22.90;85.00
41457;DHT22;27197;51.752;5.220;2023-07-28T08:09:05;22.90;84.60
41457;DHT22;27197;51.752;5.220;2023-07-28T08:11:35;22.80;84.80
41457;DHT22;27197;51.752;5.220;2023-07-28T08:14:05;22.80;85.50
41457;DHT22;27197;51.752;5.220;2023-07-28T08:16:35;22.70;85.60
41457;DHT22;27197;51.752;5.220;2023-07-28T08:19:09;22.80;85.50
41457;DHT22;27197;51.752;5.220;2023-07-28T08:21:38;22.70;86.00
41457;DHT22;27197;51.752;5.220;2023-07-28T08:24:09;22.70;85.00
41457;DHT22;27197;51.752;5.220;2023-07-28T08:26:38;22.70;85.50
41457;DHT22;27197;51.752;5.220;2023-07-28T08:29:10;22.80;85.10
41457;DHT22;27197;51.752;5.220;2023-07-28T08:31:40;22.90;85.20
41457;DHT22;27197;51.752;5.220;2023-07-28T08:34:14;23.00;84.50
41457;DHT22;27197;51.752;5.220;2023-07-28T08:36:44;23.00;83.70
41457;DHT22;27197;51.752;5.220;2023-07-28T08:39:17;23.00;83.80
41457;DHT22;27197;51.752;5.220;2023-07-28T08:41:47;23.00;83.30
41457;DHT22;27197;51.752;5.220;2023-07-28T08:44:17;23.00;83.60
41457;DHT22;27197;51.752;5.220;2023-07-28T08:46:47;23.00;83.60
41457;DHT22;27197;51.752;5.220;2023-07-28T08:49:22;22.90;83.60
41457;DHT22;27197;51.752;5.220;2023-07-28T08:57:30;23.00;83.70
41457;DHT22;27197;51.752;5.220;2023-07-28T08:59:58;23.00;84.40
41457;DHT22;27197;51.752;5.220;2023-07-28T09:02:29;23.00;85.60
41457;DHT22;27197;51.752;5.220;2023-07-28T09:05:02;23.00;86.30
41457;DHT22;27197;51.752;5.220;2023-07-28T09:07:36;23.00;86.20
41457;DHT22;27197;51.752;5.220;2023-07-28T09:10:07;23.00;84.80
41457;DHT22;27197;51.752;5.220;2023-07-28T09:12:47;23.00;87.30
41457;DHT22;27197;51.752;5.220;2023-07-28T09:15:19;23.10;87.80
41457;DHT22;27197;51.752;5.220;2023-07-28T09:17:53;23.10;88.50
41457;DHT22;27197;51.752;5.220;2023-07-28T09:20:25;23.10;88.80
41457;DHT22;27197;51.752;5.220;2023-07-28T09:22:56;23.10;87.00
41457;DHT22;27197;51.752;5.220;2023-07-28T09:25:30;23.10;88.40
41457;DHT22;27197;51.752;5.220;2023-07-28T09:28:01;23.10;88.00
41457;DHT22;27197;51.752;5.220;2023-07-28T09:30:44;23.10;86.90
41457;DHT22;27197;51.752;5.220;2023-07-28T09:33:13;23.10;86.70
41457;DHT22;27197;51.752;5.220;2023-07-28T09:35:47;23.00;85.70
41457;DHT22;27197;51.752;5.220;2023-07-28T09:38:20;23.00;85.30
41457;DHT22;27197;51.752;5.220;2023-07-28T09:40:52;23.00;86.10
41457;DHT22;27197;51.752;5.220;2023-07-28T09:43:22;23.00;86.30
41457;DHT22;27197;51.752;5.220;2023-07-28T09:45:58;23.00;87.10
41457;DHT22;27197;51.752;5.220;2023-07-28T09:48:28;23.00;88.10
41457;DHT22;27197;51.752;5.220;2023-07-28T09:51:06;23.00;87.10
41457;DHT22;27197;51.752;5.220;2023-07-28T09:53:33;23.00;88.40
41457;DHT22;27197;51.752;5.220;2023-07-28T09:56:06;23.00;88.70
41457;DHT22;27197;51.752;5.220;2023-07-28T09:58:41;23.00;88.60
41457;DHT22;27197;51.752;5.220;2023-07-28T10:01:10;23.00;88.20
41457;DHT22;27197;51.752;5.220;2023-07-28T10:03:41;23.10;88.60
41457;DHT22;27197;51.752;5.220;2023-07-28T10:06:14;23.00;87.30
41457;DHT22;27197;51.752;5.220;2023-07-28T10:08:49;23.00;87.50
41457;DHT22;27197;51.752;5.220;2023-07-28T10:11:19;23.00;87.50
41457;DHT22;27197;51.752;5.220;2023-07-28T10:13:53;23.00;87.10
41457;DHT22;27197;51.752;5.220;2023-07-28T10:16:38;23.00;88.20
41457;DHT22;27197;51.752;5.220;2023-07-28T10:19:10;23.00;87.50
41457;DHT22;27197;51.752;5.220;2023-07-28T10:21:43;22.90;86.70
41457;DHT22;27197;51.752;5.220;2023-07-28T10:24:14;22.90;87.10
41457;DHT22;27197;51.752;5.220;2023-07-28T10:26:49;23.00;87.90
41457;DHT22;27197;51.752;5.220;2023-07-28T10:29:19;23.00;88.70
41457;DHT22;27197;51.752;5.220;2023-07-28T10:31:53;23.00;87.80
41457;DHT22;27197;51.752;5.220;2023-07-28T10:34:27;23.10;88.70
41457;DHT22;27197;51.752;5.220;2023-07-28T10:37:03;23.10;88.30
41457;DHT22;27197;51.752;5.220;2023-07-28T10:39:34;23.10;89.10
41457;DHT22;27197;51.752;5.220;2023-07-28T10:42:04;23.10;87.90
41457;DHT22;27197;51.752;5.220;2023-07-28T10:44:33;23.10;89.20
41457;DHT22;27197;51.752;5.220;2023-07-28T10:47:09;23.10;88.40
41457;DHT22;27197;51.752;5.220;2023-07-28T10:49:40;23.10;89.80
41457;DHT22;27197;51.752;5.220;2023-07-28T10:52:13;23.10;87.50
41457;DHT22;27197;51.752;5.220;2023-07-28T11:00:23;23.00;86.20
41457;DHT22;27197;51.752;5.220;2023-07-28T11:02:52;23.10;89.80
41457;DHT22;27197;51.752;5.220;2023-07-28T11:05:25;23.10;90.10
41457;DHT22;27197;51.752;5.220;2023-07-28T11:07:57;23.10;90.00
41457;DHT22;27197;51.752;5.220;2023-07-28T11:10:31;23.20;90.30
41457;DHT22;27197;51.752;5.220;2023-07-28T11:15:41;23.20;89.70
41457;DHT22;27197;51.752;5.220;2023-07-28T11:18:15;23.20;88.70
41457;DHT22;27197;51.752;5.220;2023-07-28T11:20:48;23.10;87.50
41457;DHT22;27197;51.752;5.220;2023-07-28T11:23:22;23.20;89.40
41457;DHT22;27197;51.752;5.220;2023-07-28T11:25:56;23.20;90.10
41457;DHT22;27197;51.752;5.220;2023-07-28T11:28:28;23.20;89.00
41457;DHT22;27197;51.752;5.220;2023-07-28T11:31:01;23.20;89.00
41457;DHT22;27197;51.752;5.220;2023-07-28T11:33:31;23.30;90.40
41457;DHT22;27197;51.752;5.220;2023-07-28T11:36:02;23.30;90.30
41457;DHT22;27197;51.752;5.220;2023-07-28T11:38:32;23.30;90.80
41457;DHT22;27197;51.752;5.220;2023-07-28T11:41:03;23.30;91.00
41457;DHT22;27197;51.752;5.220;2023-07-28T11:43:37;23.30;90.80
41457;DHT22;27197;51.752;5.220;2023-07-28T11:46:31;23.30;91.00
41457;DHT22;27197;51.752;5.220;2023-07-28T11:48:41;23.30;90.80
41457;DHT22;27197;51.752;5.220;2023-07-28T11:51:12;23.30;90.50
41457;DHT22;27197;51.752;5.220;2023-07-28T11:53:50;23.30;91.00
41457;DHT22;27197;51.752;5.220;2023-07-28T11:56:18;23.30;90.30
41457;DHT22;27197;51.752;5.220;2023-07-28T11:58:54;23.30;90.40
41457;DHT22;27197;51.752;5.220;2023-07-28T12:01:25;23.30;90.40
41457;DHT22;27197;51.752;5.220;2023-07-28T12:03:55;23.40;90.90
41457;DHT22;27197;51.752;5.220;2023-07-28T12:06:27;23.30;90.30
41457;DHT22;27197;51.752;5.220;2023-07-28T12:09:04;23.30;89.90
41457;DHT22;27197;51.752;5.220;2023-07-28T12:11:42;23.40;90.40
41457;DHT22;27197;51.752;5.220;2023-07-28T12:14:15;23.30;89.40
41457;DHT22;27197;51.752;5.220;2023-07-28T12:16:47;23.30;90.10
41457;DHT22;27197;51.752;5.220;2023-07-28T12:19:16;23.40;90.80
41457;DHT22;27197;51.752;5.220;2023-07-28T12:21:50;23.40;90.90
41457;DHT22;27197;51.752;5.220;2023-07-28T12:24:24;23.40;90.90
41457;DHT22;27197;51.752;5.220;2023-07-28T12:26:54;23.40;91.10
41457;DHT22;27197;51.752;5.220;2023-07-28T12:29:26;23.30;89.70
41457;DHT22;27197;51.752;5.220;2023-07-28T12:31:58;23.40;89.50
41457;DHT22;27197;51.752;5.220;2023-07-28T12:34:29;23.40;89.30
41457;DHT22;27197;51.752;5.220;2023-07-28T12:37:02;23.40;91.40
41457;DHT22;27197;51.752;5.220;2023-07-28T12:39:36;23.40;90.20
41457;DHT22;27197;51.752;5.220;2023-07-28T12:42:06;23.40;88.40
41457;DHT22;27197;51.752;5.220;2023-07-28T12:44:38;23.50;91.30
41457;DHT22;27197;51.752;5.220;2023-07-28T12:47:10;23.50;90.40
41457;DHT22;27197;51.752;5.220;2023-07-28T12:49:42;23.50;90.80
41457;DHT22;27197;51.752;5.220;2023-07-28T12:52:13;23.50;90.60
41457;DHT22;27197;51.752;5.220;2023-07-28T12:54:47;23.40;90.10
41457;DHT22;27197;51.752;5.220;2023-07-28T12:57:15;23.50;90.50
41457;DHT22;27197;51.752;5.220;2023-07-28T12:59:49;23.50;91.50
41457;DHT22;27197;51.752;5.220;2023-07-28T13:02:20;23.50;90.00
41457;DHT22;27197;51.752;5.220;2023-07-28T13:04:50;23.50;89.30
41457;DHT22;27197;51.752;5.220;2023-07-28T13:07:22;23.50;88.80
41457;DHT22;27197;51.752;5.220;2023-07-28T13:09:56;23.50;88.50
41457;DHT22;27197;51.752;5.220;2023-07-28T13:12:25;23.50;89.40
41457;DHT22;27197;51.752;5.220;2023-07-28T13:14:57;23.50;88.60
41457;DHT22;27197;51.752;5.220;2023-07-28T13:17:33;23.50;89.70
41457;DHT22;27197;51.752;5.220;2023-07-28T13:20:01;23.50;88.00
41457;DHT22;27197;51.752;5.220;2023-07-28T13:38:32;23.50;87.80
41457;DHT22;27197;51.752;5.220;2023-07-28T13:41:05;23.50;87.60
41457;DHT22;27197;51.752;5.220;2023-07-28T13:43:37;23.50;87.00
41457;DHT22;27197;51.752;5.220;2023-07-28T13:46:11;23.50;87.00
41457;DHT22;27197;51.752;5.220;2023-07-28T13:48:44;23.50;87.50
41457;DHT22;27197;51.752;5.220;2023-07-28T13:51:13;23.50;87.70
41457;DHT22;27197;51.752;5.220;2023-07-28T13:53:45;23.50;87.60
41457;DHT22;27197;51.752;5.220;2023-07-28T13:56:18;23.50;88.40
41457;DHT22;27197;51.752;5.220;2023-07-28T13:58:54;23.50;89.20
41457;DHT22;27197;51.752;5.220;2023-07-28T14:25:01;23.50;83.60
41457;DHT22;27197;51.752;5.220;2023-07-28T14:27:36;23.40;82.50
41457;DHT22;27197;51.752;5.220;2023-07-28T14:35:10;23.40;82.00
41457;DHT22;27197;51.752;5.220;2023-07-28T14:37:40;23.40;81.10
41457;DHT22;27197;51.752;5.220;2023-07-28T14:40:14;23.40;83.30
41457;DHT22;27197;51.752;5.220;2023-07-28T14:42:47;23.40;82.10
41457;DHT22;27197;51.752;5.220;2023-07-28T14:45:16;23.50;83.90
41457;DHT22;27197;51.752;5.220;2023-07-28T14:47:48;23.50;84.80
41457;DHT22;27197;51.752;5.220;2023-07-28T14:50:23;23.50;82.90
41457;DHT22;27197;51.752;5.220;2023-07-28T14:52:52;23.50;83.60
41457;DHT22;27197;51.752;5.220;2023-07-28T14:55:27;23.50;81.10
41457;DHT22;27197;51.752;5.220;2023-07-28T14:57:55;23.40;81.20
41457;DHT22;27197;51.752;5.220;2023-07-28T15:00:24;23.40;81.90
41457;DHT22;27197;51.752;5.220;2023-07-28T15:02:58;23.40;82.00
41457;DHT22;27197;51.752;5.220;2023-07-28T15:05:27;23.40;79.20
41457;DHT22;27197;51.752;5.220;2023-07-28T15:07:58;23.40;79.70
41457;DHT22;27197;51.752;5.220;2023-07-28T15:10:28;23.40;78.40
41457;DHT22;27197;51.752;5.220;2023-07-28T15:13:00;23.40;80.10
41457;DHT22;27197;51.752;5.220;2023-07-28T15:15:32;23.40;82.70
41457;DHT22;27197;51.752;5.220;2023-07-28T15:18:04;23.40;82.20
41457;DHT22;27197;51.752;5.220;2023-07-28T15:20:41;23.40;82.30
41457;DHT22;27197;51.752;5.220;2023-07-28T15:23:10;23.40;83.70
41457;DHT22;27197;51.752;5.220;2023-07-28T15:25:44;23.30;80.10
41457;DHT22;27197;51.752;5.220;2023-07-28T15:28:18;23.30;80.00
41457;DHT22;27197;51.752;5.220;2023-07-28T15:30:51;23.30;77.20
41457;DHT22;27197;51.752;5.220;2023-07-28T15:33:21;23.30;78.20
41457;DHT22;27197;51.752;5.220;2023-07-28T15:35:52;23.30;78.80
41457;DHT22;27197;51.752;5.220;2023-07-28T15:38:22;23.40;83.10
41457;DHT22;27197;51.752;5.220;2023-07-28T15:40:54;23.40;82.20
41457;DHT22;27197;51.752;5.220;2023-07-28T15:43:25;23.40;80.60
41457;DHT22;27197;51.752;5.220;2023-07-28T15:45:57;23.40;81.40
41457;DHT22;27197;51.752;5.220;2023-07-28T15:48:28;23.40;83.30
41457;DHT22;27197;51.752;5.220;2023-07-28T15:50:59;23.50;82.90
41457;DHT22;27197;51.752;5.220;2023-07-28T15:53:29;23.40;81.00
41457;DHT22;27197;51.752;5.220;2023-07-28T15:56:01;23.40;82.50
41457;DHT22;27197;51.752;5.220;2023-07-28T15:58:34;23.40;80.40
41457;DHT22;27197;51.752;5.220;2023-07-28T16:01:03;23.40;80.60
41457;DHT22;27197;51.752;5.220;2023-07-28T16:03:33;23.40;81.10
41457;DHT22;27197;51.752;5.220;2023-07-28T16:06:03;23.50;82.40
41457;DHT22;27197;51.752;5.220;2023-07-28T16:08:34;23.50;82.00
41457;DHT22;27197;51.752;5.220;2023-07-28T16:11:07;23.40;81.30
41457;DHT22;27197;51.752;5.220;2023-07-28T16:13:41;23.50;82.70
41457;DHT22;27197;51.752;5.220;2023-07-28T16:16:14;23.50;83.10
41457;DHT22;27197;51.752;5.220;2023-07-28T16:18:48;23.50;82.50
41457;DHT22;27197;51.752;5.220;2023-07-28T16:21:17;23.50;81.90
41457;DHT22;27197;51.752;5.220;2023-07-28T16:23:51;23.50;81.50
41457;DHT22;27197;51.752;5.220;2023-07-28T16:26:20;23.40;81.00
41457;DHT22;27197;51.752;5.220;2023-07-28T16:28:54;23.50;81.60
41457;DHT22;27197;51.752;5.220;2023-07-28T16:31:23;23.50;82.10
41457;DHT22;27197;51.752;5.220;2023-07-28T16:33:57;23.40;81.20
41457;DHT22;27197;51.752;5.220;2023-07-28T16:36:27;23.50;81.70
41457;DHT22;27197;51.752;5.220;2023-07-28T16:39:02;23.50;82.10
41457;DHT22;27197;51.752;5.220;2023-07-28T16:41:32;23.50;82.50
41457;DHT22;27197;51.752;5.220;2023-07-28T16:44:03;23.50;82.30
41457;DHT22;27197;51.752;5.220;2023-07-28T16:46:36;23.50;81.20
41457;DHT22;27197;51.752;5.220;2023-07-28T16:49:09;23.50;81.40
41457;DHT22;27197;51.752;5.220;2023-07-28T16:51:38;23.50;82.70
41457;DHT22;27197;51.752;5.220;2023-07-28T16:54:13;23.50;81.90
41457;DHT22;27197;51.752;5.220;2023-07-28T16:56:41;23.50;81.20
41457;DHT22;27197;51.752;5.220;2023-07-28T16:59:13;23.50;81.70
41457;DHT22;27197;51.752;5.220;2023-07-28T17:01:44;23.60;81.40
41457;DHT22;27197;51.752;5.220;2023-07-28T17:04:18;23.60;81.70
41457;DHT22;27197;51.752;5.220;2023-07-28T17:06:48;23.60;81.40
41457;DHT22;27197;51.752;5.220;2023-07-28T17:09:22;23.60;81.20
41457;DHT22;27197;51.752;5.220;2023-07-28T17:11:51;23.60;81.50